createdAt,value
2018-12-21T00:00:43.902Z,21.80
2018-12-21T00:03:11.417Z,16.03
2018-12-21T00:05:38.929Z,19.37
2018-12-21T00:08:06.446Z,23.60
2018-12-21T00:10:33.962Z,26.03
2018-12-21T00:13:01.479Z,14.03
2018-12-21T00:15:28.983Z,12.80
2018-12-21T00:17:56.503Z,13.97
2018-12-21T00:20:24.035Z,18.20
2018-12-21T00:22:51.547Z,17.40
2018-12-21T00:25:19.062Z,19.23
2018-12-21T00:27:46.601Z,14.70
2018-12-21T00:30:16.077Z,18.33
2018-12-21T00:32:49.310Z,17.60
2018-12-21T00:35:22.524Z,32.60
2018-12-21T00:37:55.720Z,19.60
2018-12-21T00:40:28.806Z,23.43
2018-12-21T00:43:02.974Z,20.80
2018-12-21T00:45:30.858Z,18.40
2018-12-21T00:47:58.361Z,31.27
2018-12-21T00:50:25.873Z,55.87
2018-12-21T00:52:53.380Z,21.33
2018-12-21T00:55:20.909Z,16.37
2018-12-21T00:57:48.418Z,16.90
2018-12-21T01:00:20.124Z,9.93
2018-12-21T01:02:47.640Z,14.47
2018-12-21T01:05:15.211Z,10.90
2018-12-21T01:07:42.722Z,15.40
2018-12-21T01:10:10.219Z,14.20
2018-12-21T01:12:37.732Z,22.27
2018-12-21T01:15:05.629Z,15.60
2018-12-21T01:17:33.627Z,19.40
2018-12-21T01:20:01.147Z,25.90
2018-12-21T01:22:28.665Z,12.03
2018-12-21T01:24:56.206Z,13.53
2018-12-21T01:27:23.783Z,10.00
2018-12-21T01:29:51.293Z,15.27
2018-12-21T01:32:18.903Z,21.67
2018-12-21T01:34:46.427Z,14.87
2018-12-21T01:37:14.030Z,10.30
2018-12-21T01:39:41.549Z,14.37
2018-12-21T01:42:09.067Z,10.70
2018-12-21T01:44:36.572Z,15.80
2018-12-21T01:47:04.087Z,13.03
2018-12-21T01:49:31.586Z,9.00
2018-12-21T01:51:59.180Z,11.13
2018-12-21T01:54:26.791Z,12.47
2018-12-21T01:56:54.309Z,12.80
2018-12-21T01:59:21.835Z,10.83
2018-12-21T02:01:49.418Z,13.07
2018-12-21T02:04:16.931Z,11.27
2018-12-21T02:06:44.438Z,12.73
2018-12-21T02:09:11.939Z,12.80
2018-12-21T02:11:39.441Z,11.93
2018-12-21T02:14:06.954Z,14.33
2018-12-21T02:16:34.487Z,14.47
2018-12-21T02:19:01.991Z,9.30
2018-12-21T02:21:29.493Z,17.40
2018-12-21T02:23:57.003Z,23.77
2018-12-21T02:26:24.648Z,11.83
2018-12-21T02:28:52.159Z,11.33
2018-12-21T02:31:19.731Z,16.43
2018-12-21T02:33:47.264Z,14.00
2018-12-21T02:36:14.782Z,18.20
2018-12-21T02:38:42.274Z,11.37
2018-12-21T02:41:09.772Z,14.57
2018-12-21T02:43:37.463Z,12.57
2018-12-21T02:46:05.051Z,12.70
2018-12-21T02:48:32.588Z,14.70
2018-12-21T02:51:00.095Z,9.73
2018-12-21T02:53:27.611Z,10.90
2018-12-21T02:55:55.130Z,12.47
2018-12-21T02:58:22.747Z,7.43
2018-12-21T03:00:50.315Z,9.10
2018-12-21T03:03:17.872Z,7.67
2018-12-21T03:05:45.382Z,6.80
2018-12-21T03:08:13.006Z,5.83
2018-12-21T03:10:40.514Z,6.80
2018-12-21T03:13:08.018Z,10.60
2018-12-21T03:15:35.528Z,7.67
2018-12-21T03:18:03.028Z,7.87
2018-12-21T03:20:30.526Z,9.43
2018-12-21T03:22:58.077Z,10.53
2018-12-21T03:25:25.578Z,9.20
2018-12-21T03:27:53.096Z,10.27
2018-12-21T03:30:20.604Z,13.40
2018-12-21T03:32:48.140Z,13.63
2018-12-21T03:35:15.684Z,18.03
2018-12-21T03:37:43.481Z,10.43
2018-12-21T03:40:10.997Z,13.70
2018-12-21T03:42:38.635Z,13.27
2018-12-21T03:45:06.147Z,13.40
2018-12-21T03:47:33.657Z,13.67
2018-12-21T03:50:01.175Z,12.83
2018-12-21T03:52:28.683Z,24.53
2018-12-21T03:54:56.187Z,62.23
2018-12-21T03:57:23.705Z,47.97
2018-12-21T03:59:51.225Z,21.53
2018-12-21T04:02:20.856Z,20.90
2018-12-21T04:04:48.270Z,42.10
2018-12-21T04:07:15.871Z,7.07
2018-12-21T04:09:43.401Z,5.97
2018-12-21T04:12:10.974Z,4.90
2018-12-21T04:14:38.509Z,4.70
2018-12-21T04:17:06.019Z,4.93
2018-12-21T04:19:33.546Z,3.77
2018-12-21T04:22:01.072Z,4.80
2018-12-21T04:24:28.586Z,4.13
2018-12-21T04:26:56.102Z,8.40
2018-12-21T04:29:23.750Z,6.23
2018-12-21T04:31:51.259Z,6.47
2018-12-21T04:34:18.781Z,4.83
2018-12-21T04:36:46.401Z,3.30
2018-12-21T04:39:13.926Z,3.90
2018-12-21T04:41:41.631Z,4.40
2018-12-21T04:44:09.135Z,4.10
2018-12-21T04:46:36.673Z,9.63
2018-12-21T04:49:04.288Z,3.87
2018-12-21T04:51:31.811Z,3.73
2018-12-21T04:53:59.312Z,3.50
2018-12-21T04:56:26.825Z,2.97
2018-12-21T04:58:54.940Z,3.17
2018-12-21T05:01:22.451Z,4.57
2018-12-21T05:03:50.016Z,2.97
2018-12-21T05:06:18.493Z,4.53
2018-12-21T05:08:45.997Z,3.13
2018-12-21T05:11:13.501Z,2.97
2018-12-21T05:13:41.013Z,6.20
2018-12-21T05:16:08.563Z,2.23
2018-12-21T05:18:36.075Z,5.50
2018-12-21T05:21:03.594Z,4.13
2018-12-21T05:23:31.325Z,4.67
2018-12-21T05:25:58.904Z,4.83
2018-12-21T05:28:26.470Z,3.30
2018-12-21T05:30:54.003Z,6.03
2018-12-21T05:33:21.523Z,4.87
2018-12-21T05:35:49.044Z,3.37
2018-12-21T05:38:16.564Z,8.90
2018-12-21T05:40:44.120Z,3.00
2018-12-21T05:43:11.608Z,5.23
2018-12-21T05:45:39.110Z,2.53
2018-12-21T05:48:06.624Z,3.20
2018-12-21T05:50:34.520Z,3.70
2018-12-21T05:53:02.062Z,3.73
2018-12-21T05:55:29.592Z,6.13
2018-12-21T05:57:57.113Z,3.87
2018-12-21T06:00:24.641Z,2.53
2018-12-21T06:02:52.139Z,3.40
2018-12-21T06:05:19.646Z,1.80
2018-12-21T06:07:47.150Z,3.47
2018-12-21T06:10:14.663Z,3.67
2018-12-21T06:12:42.194Z,1.40
2018-12-21T06:15:09.760Z,3.20
2018-12-21T06:17:37.275Z,2.30
2018-12-21T06:20:05.064Z,2.53
2018-12-21T06:22:32.581Z,2.67
2018-12-21T06:25:00.089Z,1.70
2018-12-21T06:27:27.688Z,3.20
2018-12-21T06:29:55.203Z,4.07
2018-12-21T06:32:22.779Z,1.73
2018-12-21T06:34:50.292Z,1.50
2018-12-21T06:37:17.813Z,2.83
2018-12-21T06:39:45.330Z,1.50
2018-12-21T06:42:12.845Z,2.80
2018-12-21T06:44:40.350Z,3.10
2018-12-21T06:47:07.958Z,1.50
2018-12-21T06:49:35.467Z,2.50
2018-12-21T06:52:02.969Z,2.67
2018-12-21T06:54:30.471Z,2.43
2018-12-21T06:56:58.004Z,1.67
2018-12-21T06:59:25.534Z,2.37
2018-12-21T07:01:53.035Z,1.20
2018-12-21T07:04:20.548Z,1.30
2018-12-21T07:06:48.049Z,2.97
2018-12-21T07:09:15.559Z,1.57
2018-12-21T07:11:43.075Z,1.63
2018-12-21T07:14:10.578Z,2.37
2018-12-21T07:16:38.083Z,1.60
2018-12-21T07:19:05.590Z,1.80
2018-12-21T07:21:33.114Z,1.90
2018-12-21T07:24:00.617Z,2.20
2018-12-21T07:26:28.146Z,2.40
2018-12-21T07:28:55.727Z,3.10
2018-12-21T07:31:23.234Z,2.57
2018-12-21T07:33:50.756Z,2.00
2018-12-21T07:36:18.274Z,2.37
2018-12-21T07:38:45.842Z,2.10
2018-12-21T07:41:13.368Z,2.10
2018-12-21T07:43:40.890Z,1.87
2018-12-21T07:46:08.391Z,2.80
2018-12-21T07:48:35.916Z,1.70
2018-12-21T07:51:03.451Z,2.70
2018-12-21T07:53:35.759Z,2.13
2018-12-21T07:56:00.482Z,1.90
2018-12-21T07:58:27.986Z,2.13
2018-12-21T08:00:55.516Z,2.13
2018-12-21T08:03:23.027Z,2.50
2018-12-21T08:05:50.538Z,2.60
2018-12-21T08:08:18.066Z,2.80
2018-12-21T08:10:45.586Z,2.57
2018-12-21T08:13:13.096Z,4.13
2018-12-21T08:15:40.617Z,2.40
2018-12-21T08:18:08.150Z,1.93
2018-12-21T08:20:35.669Z,2.30
2018-12-21T08:23:03.183Z,3.37
2018-12-21T08:25:30.699Z,4.20
2018-12-21T08:27:58.214Z,1.70
2018-12-21T08:30:25.723Z,1.73
2018-12-21T08:32:53.244Z,2.43
2018-12-21T08:35:20.866Z,2.87
2018-12-21T08:37:48.385Z,1.90
2018-12-21T08:40:15.891Z,2.00
2018-12-21T08:42:43.396Z,1.93
2018-12-21T08:45:11.064Z,2.63
2018-12-21T08:47:38.592Z,3.43
2018-12-21T08:50:07.151Z,1.83
2018-12-21T08:52:34.658Z,2.00
2018-12-21T09:07:25.096Z,1.90
2018-12-21T09:09:52.603Z,2.70
2018-12-21T09:12:20.113Z,2.13
2018-12-21T09:14:47.625Z,3.03
2018-12-21T09:17:15.222Z,2.50
2018-12-21T09:19:42.723Z,4.13
2018-12-21T09:22:10.237Z,1.93
2018-12-21T09:24:37.738Z,7.40
2018-12-21T09:27:05.243Z,4.27
2018-12-21T09:29:32.755Z,2.13
2018-12-21T09:32:05.070Z,5.03
2018-12-21T09:34:29.778Z,4.17
2018-12-21T09:36:57.280Z,3.63
2018-12-21T09:39:24.782Z,3.53
2018-12-21T09:41:52.295Z,2.50
2018-12-21T09:44:19.813Z,4.17
2018-12-21T09:46:47.319Z,4.60
2018-12-21T09:49:14.825Z,2.43
2018-12-21T09:51:42.315Z,3.80
2018-12-21T09:54:10.324Z,3.90
2018-12-21T09:56:37.947Z,2.33
2018-12-21T09:59:05.450Z,4.10
2018-12-21T10:01:32.955Z,2.80
2018-12-21T10:04:00.454Z,4.93
2018-12-21T10:06:28.305Z,6.23
2018-12-21T10:08:55.811Z,5.90
2018-12-21T10:11:23.313Z,5.30
2018-12-21T10:13:50.854Z,5.07
2018-12-21T10:16:18.359Z,5.97
2018-12-21T10:18:45.874Z,7.03
2018-12-21T10:21:13.379Z,5.53
2018-12-21T10:23:40.919Z,4.37
2018-12-21T10:26:08.434Z,4.47
2018-12-21T10:28:35.944Z,3.80
2018-12-21T10:31:03.458Z,4.93
2018-12-21T10:33:30.961Z,8.30
2018-12-21T10:35:58.471Z,5.63
2018-12-21T10:38:25.979Z,6.40
2018-12-21T10:40:53.497Z,7.67
2018-12-21T10:43:20.999Z,5.53
2018-12-21T10:45:48.507Z,10.47
2018-12-21T10:48:16.029Z,6.80
2018-12-21T10:50:43.537Z,7.57
2018-12-21T10:53:11.283Z,5.93
2018-12-21T10:55:38.783Z,5.77
2018-12-21T10:58:06.285Z,8.43
2018-12-21T11:00:33.785Z,8.00
2018-12-21T11:03:01.295Z,4.83
2018-12-21T11:05:28.799Z,3.73
2018-12-21T11:07:56.325Z,7.47
2018-12-21T11:10:23.841Z,7.77
2018-12-21T11:12:51.349Z,7.27
2018-12-21T11:15:18.872Z,5.33
2018-12-21T11:17:46.392Z,8.13
2018-12-21T11:20:13.927Z,6.90
2018-12-21T11:22:41.431Z,8.07
2018-12-21T11:25:10.491Z,10.63
2018-12-21T11:27:37.989Z,8.10
2018-12-21T11:30:07.732Z,14.07
2018-12-21T11:32:35.255Z,17.27
2018-12-21T11:35:02.881Z,14.40
2018-12-21T11:37:30.376Z,18.53
2018-12-21T11:39:57.882Z,13.37
2018-12-21T11:42:25.395Z,14.73
2018-12-21T11:44:52.904Z,18.43
2018-12-21T11:47:20.409Z,20.23
2018-12-21T11:49:47.986Z,22.40
2018-12-21T11:52:15.487Z,13.73
2018-12-21T11:54:44.438Z,20.37
2018-12-21T11:57:12.226Z,13.17
2018-12-21T11:59:44.868Z,20.73
2018-12-21T12:02:09.277Z,20.90
2018-12-21T12:04:36.791Z,20.90
2018-12-21T12:07:04.299Z,20.40
2018-12-21T12:09:31.809Z,22.03
2018-12-21T12:11:59.339Z,27.97
2018-12-21T12:14:26.863Z,22.27
2018-12-21T12:16:54.465Z,24.77
2018-12-21T12:19:21.978Z,23.60
2018-12-21T12:21:49.801Z,24.40
2018-12-21T12:24:17.307Z,26.10
2018-12-21T12:26:44.808Z,24.93
2018-12-21T12:29:12.373Z,20.83
2018-12-21T12:31:39.878Z,28.93
2018-12-21T12:34:07.387Z,28.43
2018-12-21T12:36:34.894Z,31.73
2018-12-21T12:39:02.457Z,24.73
2018-12-21T12:41:29.979Z,27.50
2018-12-21T12:43:57.489Z,29.93
2018-12-21T12:46:24.991Z,31.10
2018-12-21T12:48:52.516Z,34.20
2018-12-21T12:51:20.029Z,29.17
2018-12-21T12:53:47.538Z,28.17
2018-12-21T12:56:15.058Z,27.40
2018-12-21T12:58:42.564Z,27.93
2018-12-21T13:01:10.288Z,35.57
2018-12-21T13:03:37.788Z,36.67
2018-12-21T13:06:05.302Z,30.30
2018-12-21T13:08:32.814Z,31.70
2018-12-21T13:11:00.364Z,37.50
2018-12-21T13:13:27.867Z,36.90
2018-12-21T13:15:55.368Z,30.53
2018-12-21T13:18:22.892Z,30.53
2018-12-21T13:20:50.404Z,37.80
2018-12-21T13:23:17.920Z,36.07
2018-12-21T13:25:45.440Z,29.40
2018-12-21T13:28:12.975Z,31.70
2018-12-21T13:30:40.489Z,30.97
2018-12-21T13:33:08.001Z,39.30
2018-12-21T13:35:35.511Z,32.70
2018-12-21T13:38:03.021Z,37.13
2018-12-21T13:40:30.521Z,39.20
2018-12-21T13:42:58.027Z,25.10
2018-12-21T13:45:25.561Z,28.00
2018-12-21T13:47:53.070Z,37.47
2018-12-21T13:50:20.617Z,39.90
2018-12-21T13:52:48.119Z,34.90
2018-12-21T13:55:20.152Z,39.83
2018-12-21T13:57:45.144Z,38.17
2018-12-21T14:00:12.652Z,36.93
2018-12-21T14:02:40.151Z,39.93
2018-12-21T14:05:07.662Z,39.37
2018-12-21T14:07:35.214Z,42.43
2018-12-21T14:10:03.925Z,37.80
2018-12-21T14:12:31.430Z,36.50
2018-12-21T14:14:58.942Z,41.47
2018-12-21T14:17:26.467Z,43.13
2018-12-21T14:19:54.088Z,34.97
2018-12-21T14:22:21.611Z,44.57
2018-12-21T14:24:49.192Z,40.60
2018-12-21T14:27:16.710Z,45.93
2018-12-21T14:29:44.238Z,40.47
2018-12-21T14:32:11.742Z,45.30
2018-12-21T14:34:39.259Z,36.53
2018-12-21T14:37:06.771Z,37.27
2018-12-21T14:39:34.279Z,45.63
2018-12-21T14:42:01.864Z,37.47
2018-12-21T14:44:29.382Z,44.70
2018-12-21T14:46:57.058Z,45.87
2018-12-21T14:49:24.561Z,40.13
2018-12-21T14:51:52.088Z,47.63
2018-12-21T14:54:19.594Z,39.87
2018-12-21T14:56:47.118Z,41.50
2018-12-21T14:59:14.944Z,40.40
2018-12-21T15:01:42.456Z,35.77
2018-12-21T15:04:09.970Z,39.30
2018-12-21T15:06:37.560Z,38.60
2018-12-21T15:09:06.056Z,47.73
2018-12-21T15:11:33.577Z,35.23
2018-12-21T15:14:01.081Z,37.07
2018-12-21T15:16:28.591Z,42.70
2018-12-21T15:18:56.102Z,43.93
2018-12-21T15:21:23.615Z,40.80
2018-12-21T15:26:23.969Z,40.40
2018-12-21T15:28:51.477Z,44.47
2018-12-21T15:31:18.983Z,40.17
2018-12-21T15:33:46.523Z,34.87
2018-12-21T15:36:14.200Z,40.97
2018-12-21T15:38:41.705Z,41.97
2018-12-21T15:41:09.222Z,48.33
2018-12-21T15:43:37.457Z,44.03
2018-12-21T15:46:04.963Z,46.73
2018-12-21T15:48:32.478Z,38.37
2018-12-21T15:51:00.082Z,42.23
2018-12-21T15:53:28.230Z,39.10
2018-12-21T15:55:55.746Z,49.83
2018-12-21T15:58:23.381Z,46.17
2018-12-21T16:00:50.889Z,41.93
2018-12-21T16:03:18.424Z,41.40
2018-12-21T16:05:45.940Z,44.67
2018-12-21T16:08:13.445Z,45.63
2018-12-21T16:10:40.961Z,37.23
2018-12-21T16:13:08.481Z,44.47
2018-12-21T16:15:36.006Z,40.30
2018-12-21T16:18:03.524Z,43.90
2018-12-21T16:20:31.036Z,42.53
2018-12-21T16:22:58.709Z,38.90
2018-12-21T16:25:26.273Z,43.33
2018-12-21T16:27:54.006Z,42.53
2018-12-21T16:30:21.594Z,43.23
2018-12-21T16:32:49.115Z,40.90
2018-12-21T16:35:16.627Z,42.70
2018-12-21T16:37:44.257Z,42.10
2018-12-21T16:40:11.783Z,48.70
2018-12-21T16:42:39.977Z,38.83
2018-12-21T16:45:08.551Z,49.07
2018-12-21T16:47:36.059Z,39.97
2018-12-21T16:52:42.264Z,38.57
2018-12-21T16:55:09.789Z,44.30
2018-12-21T16:57:37.393Z,37.17
2018-12-21T17:00:08.728Z,43.87
2018-12-21T17:02:36.277Z,47.40
2018-12-21T17:05:04.642Z,50.57
2018-12-21T17:07:32.147Z,45.50
2018-12-21T17:09:59.690Z,51.07
2018-12-21T17:12:27.200Z,44.57
2018-12-21T17:14:54.716Z,51.73
2018-12-21T17:17:22.638Z,39.47
2018-12-21T17:19:50.202Z,43.90
2018-12-21T17:22:17.725Z,40.53
2018-12-21T17:24:45.236Z,45.93
2018-12-21T17:27:12.748Z,44.07
2018-12-21T17:29:40.258Z,45.00
2018-12-21T17:32:07.792Z,42.07
2018-12-21T17:34:35.295Z,50.77
2018-12-21T17:37:02.814Z,42.00
2018-12-21T17:39:30.429Z,39.80
2018-12-21T17:41:57.958Z,43.17
2018-12-21T17:44:25.474Z,49.43
2018-12-21T17:46:52.970Z,39.80
2018-12-21T17:49:20.500Z,42.23
2018-12-21T17:51:48.006Z,32.90
2018-12-21T17:54:15.552Z,43.53
2018-12-21T17:56:43.058Z,50.53
2018-12-21T17:59:10.582Z,41.83
2018-12-21T18:01:38.452Z,36.97
2018-12-21T18:04:05.956Z,52.70
2018-12-21T18:06:33.474Z,41.17
2018-12-21T18:09:00.986Z,42.30
2018-12-21T18:11:28.490Z,38.23
2018-12-21T18:13:56.048Z,41.80
2018-12-21T18:16:23.609Z,48.37
2018-12-21T18:18:51.126Z,33.87
2018-12-21T18:21:18.630Z,39.17
2018-12-21T18:23:46.472Z,44.93
2018-12-21T18:26:13.980Z,53.43
2018-12-21T18:28:41.492Z,46.67
2018-12-21T18:31:11.436Z,40.00
2018-12-21T18:33:39.172Z,51.80
2018-12-21T18:36:06.694Z,47.10
2018-12-21T18:38:34.262Z,47.80
2018-12-21T18:41:01.772Z,38.73
2018-12-21T18:43:29.325Z,54.87
2018-12-21T18:45:56.896Z,39.77
2018-12-21T18:48:24.408Z,51.27
2018-12-21T18:50:51.904Z,46.07
2018-12-21T18:53:19.516Z,42.83
2018-12-21T18:55:47.862Z,36.27
2018-12-21T18:58:15.380Z,41.23
2018-12-21T19:00:42.892Z,42.90
2018-12-21T19:03:10.396Z,45.07
2018-12-21T19:05:37.901Z,44.03
2018-12-21T19:08:05.405Z,42.00
2018-12-21T19:10:32.915Z,42.60
2018-12-21T19:13:00.425Z,40.63
2018-12-21T19:15:27.933Z,36.30
2018-12-21T19:17:55.472Z,48.47
2018-12-21T19:20:22.976Z,43.53
2018-12-21T19:22:50.510Z,42.20
2018-12-21T19:25:18.309Z,43.37
2018-12-21T19:27:45.813Z,42.10
2018-12-21T19:30:13.309Z,46.93
2018-12-21T19:32:40.920Z,40.30
2018-12-21T19:35:08.419Z,41.70
2018-12-21T19:37:35.931Z,51.83
2018-12-21T19:40:04.977Z,51.17
2018-12-21T19:42:32.485Z,45.13
2018-12-21T19:45:00.118Z,36.87
2018-12-21T19:47:28.696Z,41.20
2018-12-21T19:49:56.219Z,45.13
2018-12-21T19:52:23.718Z,52.90
2018-12-21T19:54:51.231Z,48.03
2018-12-21T19:57:18.741Z,38.03
2018-12-21T19:59:46.241Z,50.07
2018-12-21T20:02:13.779Z,56.23
2018-12-21T20:04:41.289Z,46.20
2018-12-21T20:07:08.837Z,52.77
2018-12-21T20:09:36.337Z,38.40
2018-12-21T20:12:03.972Z,48.27
2018-12-21T20:14:31.482Z,33.90
2018-12-21T20:16:59.084Z,39.23
2018-12-21T20:19:26.581Z,40.33
2018-12-21T20:21:54.312Z,52.40
2018-12-21T20:24:23.227Z,41.10
2018-12-21T20:26:50.930Z,52.57
2018-12-21T20:29:18.433Z,47.20
2018-12-21T20:31:45.935Z,49.37
2018-12-21T20:34:13.466Z,46.63
2018-12-21T20:36:40.977Z,46.53
2018-12-21T20:39:11.226Z,42.27
2018-12-21T20:41:38.734Z,47.60
2018-12-21T20:44:06.244Z,46.43
2018-12-21T20:46:33.755Z,42.87
2018-12-21T20:49:01.268Z,43.47
2018-12-21T20:51:28.776Z,34.90
2018-12-21T20:53:56.279Z,40.63
2018-12-21T20:56:23.810Z,45.33
2018-12-21T20:58:51.548Z,39.77
2018-12-21T21:01:19.247Z,43.37
2018-12-21T21:03:46.753Z,42.57
2018-12-21T21:06:14.284Z,37.37
2018-12-21T21:08:41.796Z,36.47
2018-12-21T21:11:09.303Z,38.93
2018-12-21T21:13:36.826Z,40.33
2018-12-21T21:16:04.330Z,32.37
2018-12-21T21:18:31.830Z,44.63
2018-12-21T21:20:59.344Z,44.50
2018-12-21T21:23:26.903Z,38.67
2018-12-21T21:25:54.447Z,45.30
2018-12-21T21:28:21.959Z,40.60
2018-12-21T21:30:49.473Z,46.17
2018-12-21T21:33:16.985Z,41.43
2018-12-21T21:35:44.497Z,31.40
2018-12-21T21:38:12.023Z,39.60
2018-12-21T21:40:39.527Z,47.77
2018-12-21T21:43:08.071Z,40.67
2018-12-21T21:45:35.603Z,47.20
2018-12-21T21:48:03.115Z,37.47
2018-12-21T21:50:30.655Z,37.03
2018-12-21T21:52:58.159Z,45.97
2018-12-21T21:55:26.052Z,44.10
2018-12-21T21:57:53.572Z,50.77
2018-12-21T22:00:21.093Z,46.30
2018-12-21T22:02:48.611Z,39.33
2018-12-21T22:05:16.112Z,48.33
2018-12-21T22:07:43.632Z,45.47
2018-12-21T22:10:11.136Z,37.50
2018-12-21T22:12:38.675Z,39.03
2018-12-21T22:15:07.244Z,38.80
2018-12-21T22:17:34.754Z,40.90
2018-12-21T22:20:02.551Z,42.73
2018-12-21T22:22:30.080Z,37.53
2018-12-21T22:24:57.588Z,41.83
2018-12-21T22:27:25.102Z,44.80
2018-12-21T22:29:52.603Z,50.27
2018-12-21T22:32:20.120Z,37.53
2018-12-21T22:34:47.626Z,51.10
2018-12-21T22:37:15.138Z,46.37
2018-12-21T22:39:42.647Z,37.60
2018-12-21T22:42:10.153Z,40.87
2018-12-21T22:44:37.668Z,42.67
2018-12-21T22:47:05.183Z,49.17
2018-12-21T22:49:32.698Z,39.43
2018-12-21T22:52:00.210Z,49.53
2018-12-21T22:54:27.730Z,52.37
2018-12-21T22:56:55.238Z,45.53
2018-12-21T22:59:22.746Z,52.13
2018-12-21T23:01:50.266Z,41.17
2018-12-21T23:04:17.777Z,46.70
2018-12-21T23:06:45.306Z,40.87
2018-12-21T23:09:12.817Z,36.20
2018-12-21T23:11:40.356Z,46.20
2018-12-21T23:14:07.858Z,38.40
2018-12-21T23:16:35.362Z,45.13
2018-12-21T23:19:02.903Z,47.27
2018-12-21T23:21:30.429Z,35.43
2018-12-21T23:23:58.075Z,32.57
2018-12-21T23:26:25.590Z,39.00
2018-12-21T23:28:53.095Z,40.33
2018-12-21T23:31:20.609Z,48.47
2018-12-21T23:33:48.116Z,48.40
2018-12-21T23:36:15.625Z,45.97
2018-12-21T23:38:43.141Z,36.13
2018-12-21T23:41:10.667Z,46.07
2018-12-21T23:43:43.254Z,39.30
2018-12-21T23:46:07.735Z,48.53
2018-12-21T23:48:35.346Z,40.60
2018-12-21T23:51:02.859Z,47.90
2018-12-21T23:53:30.376Z,51.40
2018-12-21T23:55:57.890Z,32.03
2018-12-21T23:58:25.407Z,42.83
